Time;durP1;ratioP1;P1;durP2;ratioP2;P2;SDS_P1;SDS_P2;PMS_P1;PMS_P2;Temp;Humidity;BMP_temperature;BMP_pressure;BME280_temperature;BME280_humidity;BME280_pressure;Samples;Min_cycle;Max_cycle;Signal;HPM_P1;HPM_P2
2022/12/17 13:06:47;;;;;;;;;63.50;47.50;;;;;3.17;61.67;101837.88;5090454;27;45471;-60
2022/12/17 13:09:16;;;;;;;;;60.75;50.50;;;;;3.11;61.59;101837.88;5090588;27;45420;-61
2022/12/17 13:11:47;;;;;;;;;65.25;50.25;;;;;3.12;61.41;101834.38;5101458;27;45630;-60
2022/12/17 13:14:48;;;;;;;;;55.75;44.50;;;;;3.08;61.79;101832.66;5095556;27;46198;-60
2022/12/17 13:17:14;;;;;;;;;61.50;48.75;;;;;3.09;62.03;101834.38;5027595;27;45377;-59
2022/12/17 13:19:42;;;;;;;;;69.75;49.75;;;;;3.14;61.75;101827.38;5097391;27;45408;-61
2022/12/17 13:22:13;;;;;;;;;64.25;48.50;;;;;3.11;61.63;101828.25;5096669;27;45402;-61
2022/12/17 13:24:43;;;;;;;;;46.50;41.25;;;;;3.11;61.40;101822.97;5094442;27;46349;-61
2022/12/17 13:27:44;;;;;;;;;55.50;49.75;;;;;3.16;61.51;101821.22;5096975;27;45411;-61
2022/12/17 13:30:16;;;;;;;;;68.75;48.25;;;;;3.21;61.10;101824.69;4991879;28;45647;-60
2022/12/17 13:33:04;;;;;;;;;55.50;48.25;;;;;3.19;60.66;101812.44;5066710;27;45545;-59
2022/12/17 13:35:51;;;;;;;;;53.00;43.25;;;;;3.21;60.89;101822.06;5086815;27;46221;-60
2022/12/17 13:38:40;;;;;;;;;61.50;42.75;;;;;3.27;60.32;101829.03;5094855;27;45436;-61
2022/12/17 13:41:08;;;;;;;;;48.00;43.50;;;;;3.22;60.00;101810.66;5088427;27;45634;-61
2022/12/17 13:43:42;;;;;;;;;50.75;39.50;;;;;3.19;58.80;101820.31;5096461;27;45337;-59
2022/12/17 13:46:20;;;;;;;;;44.75;34.25;;;;;3.08;59.77;101822.13;5062669;27;45430;-61
2022/12/17 13:49:00;;;;;;;;;36.00;34.75;;;;;3.06;59.51;101822.16;5058937;28;45359;-61
2022/12/17 13:51:29;;;;;;;;;57.00;42.00;;;;;2.95;59.81;101805.56;5073516;27;45303;-58
2022/12/17 13:53:58;;;;;;;;;48.75;43.50;;;;;3.12;59.82;101816.84;5096722;27;45454;-63
2022/12/17 13:56:35;;;;;;;;;52.75;37.50;;;;;3.13;59.63;101818.63;5076181;27;48197;-59
2022/12/17 13:59:02;;;;;;;;;44.25;38.00;;;;;3.12;59.49;101813.34;5096782;27;45264;-60
2022/12/17 14:01:29;;;;;;;;;47.00;32.50;;;;;3.03;59.64;101810.78;5097178;27;45222;-61
2022/12/17 14:04:02;;;;;;;;;44.75;33.75;;;;;3.06;59.92;101822.16;5077014;27;45237;-60
2022/12/17 14:06:33;;;;;;;;;46.50;38.75;;;;;3.09;59.80;101829.13;5057304;28;45473;-60
2022/12/17 14:08:59;;;;;;;;;52.00;40.75;;;;;3.02;59.99;101827.44;5067095;27;45378;-60
2022/12/17 14:14:35;;;;;;;;;36.50;28.50;;;;;3.04;60.10;101825.66;5074779;28;45485;-62
2022/12/17 14:17:01;;;;;;;;;45.75;41.00;;;;;2.96;59.85;101823.94;5071765;28;45559;-58
2022/12/17 14:19:29;;;;;;;;;52.00;36.00;;;;;2.93;60.00;101826.59;5052648;28;45399;-60
2022/12/17 14:21:55;;;;;;;;;51.50;42.50;;;;;2.91;60.49;101830.97;5038583;28;45495;-61
2022/12/17 14:24:25;;;;;;;;;49.50;41.75;;;;;2.86;60.09;101822.22;5044869;28;45300;-60
2022/12/17 14:26:57;;;;;;;;;44.25;39.25;;;;;2.90;60.26;101823.13;5067635;28;45415;-62
2022/12/17 14:29:25;;;;;;;;;58.50;42.75;;;;;2.93;60.55;101825.72;5042351;28;45312;-61
2022/12/17 14:31:56;;;;;;;;;54.75;39.75;;;;;2.90;59.82;101823.97;5060397;28;45336;-60
2022/12/17 14:34:23;;;;;;;;;38.75;36.00;;;;;2.93;60.07;101839.72;5067749;28;45576;-60
2022/12/17 14:36:55;;;;;;;;;46.75;42.50;;;;;2.92;60.43;101838.00;5079624;28;45219;-60
2022/12/17 14:39:29;;;;;;;;;67.75;47.50;;;;;2.90;60.12;101845.00;5076395;28;45445;-60
2022/12/17 14:42:28;;;;;;;;;45.50;38.25;;;;;2.95;60.41;101845.84;5062762;28;45405;-60
2022/12/17 14:45:02;;;;;;;;;39.25;33.75;;;;;2.94;60.51;101857.25;5075967;28;45433;-61
2022/12/17 14:47:28;;;;;;;;;48.75;40.75;;;;;2.99;60.27;101853.72;5079275;28;46349;-60
2022/12/17 14:50:00;;;;;;;;;49.50;39.00;;;;;3.01;59.99;101852.84;5077899;27;45529;-60
2022/12/17 14:52:26;;;;;;;;;28.00;23.75;;;;;2.94;59.81;101836.22;5084814;27;45472;-59
2022/12/17 14:54:52;;;;;;;;;35.00;32.50;;;;;2.94;60.25;101832.72;5062528;28;45521;-61
2022/12/17 14:57:21;;;;;;;;;51.75;37.00;;;;;2.95;59.85;101830.09;5061413;28;45247;-59
2022/12/17 14:59:46;;;;;;;;;55.75;43.25;;;;;2.87;59.88;101821.38;5079377;28;45427;-58
2022/12/17 15:02:26;;;;;;;;;60.00;43.75;;;;;2.86;60.89;101819.59;5078151;28;45452;-60
2022/12/17 15:04:59;;;;;;;;;40.00;36.50;;;;;2.81;60.60;101813.50;5079451;28;45698;-60
2022/12/17 15:07:28;;;;;;;;;42.50;35.00;;;;;2.87;60.79;101824.00;5078297;28;45402;-60
2022/12/17 15:09:55;;;;;;;;;44.75;39.50;;;;;2.84;60.47;101821.38;5069252;28;45667;-61
2022/12/17 15:12:22;;;;;;;;;50.25;35.25;;;;;2.90;60.18;101833.63;5078218;28;45476;-61
2022/12/17 15:14:48;;;;;;;;;51.75;39.75;;;;;2.64;60.50;101794.34;5055327;28;45407;-63
2022/12/17 15:17:14;;;;;;;;;48.75;42.00;;;;;2.77;60.84;101824.94;5078836;27;48185;-60
2022/12/17 15:19:39;;;;;;;;;58.75;43.75;;;;;2.76;60.70;101831.06;5076956;28;45778;-61
2022/12/17 15:22:05;;;;;;;;;49.00;41.25;;;;;2.67;60.27;101821.44;5078221;28;45947;-60
2022/12/17 15:24:30;;;;;;;;;44.50;31.75;;;;;2.62;60.28;101809.22;5076627;28;45534;-60
2022/12/17 15:26:56;;;;;;;;;54.00;44.75;;;;;2.67;60.97;101817.94;5078833;28;45446;-59
2022/12/17 15:29:23;;;;;;;;;38.50;38.25;;;;;2.65;61.08;101809.22;5073094;28;45386;-59
2022/12/17 15:31:49;;;;;;;;;48.75;38.50;;;;;2.51;60.85;101798.75;5052120;28;45601;-58
2022/12/17 15:34:14;;;;;;;;;52.75;39.50;;;;;2.61;60.43;101823.25;5077155;28;45591;-58
2022/12/17 15:36:40;;;;;;;;;38.25;27.50;;;;;2.57;60.17;101824.13;5079163;28;46019;-60
2022/12/17 15:39:05;;;;;;;;;45.00;36.75;;;;;2.55;60.20;101839.00;5048691;28;45794;-62
2022/12/17 15:44:16;;;;;;;;;43.25;26.75;;;;;2.42;59.22;101837.28;5074496;28;45376;-61
2022/12/17 15:46:41;;;;;;;;;49.25;39.25;;;;;2.41;60.09;101844.31;5048612;28;46344;-58
2022/12/17 15:49:06;;;;;;;;;36.50;25.00;;;;;2.43;59.67;101842.53;5078855;28;45351;-63
2022/12/17 15:51:32;;;;;;;;;39.50;36.00;;;;;2.40;59.77;101857.44;5079121;28;45473;-60
2022/12/17 15:53:57;;;;;;;;;42.00;36.75;;;;;2.39;59.88;101850.44;5079036;28;45564;-60
2022/12/17 15:56:25;;;;;;;;;47.50;30.00;;;;;2.31;60.39;101847.81;5078981;28;46067;-60
2022/12/17 15:58:51;;;;;;;;;38.50;29.50;;;;;2.30;59.85;101856.56;5078833;28;45373;-59
2022/12/17 16:01:18;;;;;;;;;29.25;25.00;;;;;2.29;60.37;101870.56;5061226;28;45383;-62
2022/12/17 16:03:44;;;;;;;;;55.75;34.75;;;;;2.28;59.63;101869.69;5078546;28;45558;-63
2022/12/17 16:06:10;;;;;;;;;36.00;33.25;;;;;2.22;59.85;101874.97;5076429;28;45452;-59
2022/12/17 16:08:39;;;;;;;;;54.75;31.50;;;;;2.21;59.29;101865.31;5045129;28;45370;-58
2022/12/17 16:11:08;;;;;;;;;54.75;37.50;;;;;2.15;59.98;101864.47;5042329;28;45474;-59
2022/12/17 16:13:34;;;;;;;;;32.00;28.00;;;;;2.09;59.93;101849.63;5060663;28;45283;-59
2022/12/17 16:15:59;;;;;;;;;53.25;32.00;;;;;2.04;60.11;101856.59;5078045;28;45408;-60
2022/12/17 16:18:25;;;;;;;;;30.00;28.25;;;;;1.96;59.79;101853.13;5077974;28;45243;-59
2022/12/17 16:20:50;;;;;;;;;33.25;29.75;;;;;1.96;60.52;101882.00;5078181;28;45232;-60
2022/12/17 16:23:16;;;;;;;;;38.25;34.25;;;;;1.94;60.41;101867.97;5075839;28;45593;-60
2022/12/17 16:25:41;;;;;;;;;34.75;34.00;;;;;1.93;60.90;101863.59;5059765;28;46174;-61
2022/12/17 16:28:10;;;;;;;;;38.00;35.50;;;;;1.91;60.64;101853.13;5061779;28;45346;-60
2022/12/17 16:30:35;;;;;;;;;39.25;34.50;;;;;1.88;60.65;101855.75;5078019;28;45432;-62
2022/12/17 16:33:00;;;;;;;;;37.75;28.00;;;;;1.89;60.50;101861.88;5077929;28;45580;-62
2022/12/17 16:35:27;;;;;;;;;33.75;27.75;;;;;1.85;60.30;101852.25;5077544;28;45456;-61
2022/12/17 16:37:53;;;;;;;;;32.75;28.75;;;;;1.81;60.65;101853.09;5076542;28;45359;-60
2022/12/17 16:40:19;;;;;;;;;31.00;25.25;;;;;1.79;60.26;101863.59;5086098;27;45306;-61
2022/12/17 16:42:44;;;;;;;;;27.50;23.50;;;;;1.77;59.98;101874.09;5071079;28;45440;-62
2022/12/17 16:45:10;;;;;;;;;34.25;21.25;;;;;1.76;60.17;101880.22;5076170;28;46198;-58
2022/12/17 16:47:35;;;;;;;;;33.50;28.25;;;;;1.69;60.56;101861.84;5056946;28;45395;-61
2022/12/17 16:50:00;;;;;;;;;18.75;18.75;;;;;1.74;60.05;101858.38;5073432;28;45530;-61
2022/12/17 16:52:26;;;;;;;;;33.25;28.00;;;;;1.71;59.81;101854.88;5082928;27;45546;-57
2022/12/17 16:54:51;;;;;;;;;30.25;26.50;;;;;1.69;60.46;101857.50;5056962;28;45391;-57
2022/12/17 16:57:17;;;;;;;;;38.75;28.00;;;;;1.60;60.55;101833.88;5065164;28;45517;-58
2022/12/17 16:59:42;;;;;;;;;45.75;38.50;;;;;1.61;60.71;101843.50;5077084;28;45289;-58
2022/12/17 17:02:14;;;;;;;;;31.75;29.50;;;;;1.57;60.69;101847.00;5076160;28;45551;-67
2022/12/17 17:04:40;;;;;;;;;36.25;27.00;;;;;1.48;61.03;101831.25;5076200;27;45480;-58
2022/12/17 17:07:05;;;;;;;;;31.25;28.25;;;;;1.56;61.17;101860.09;5079110;27;45502;-58
2022/12/17 17:09:31;;;;;;;;;32.00;30.00;;;;;1.57;60.98;101856.63;5075982;27;45396;-60
2022/12/17 17:11:57;;;;;;;;;53.75;42.00;;;;;1.58;61.26;101864.47;5056970;28;45555;-58
2022/12/17 17:14:23;;;;;;;;;52.50;44.25;;;;;1.55;62.05;101855.72;5056864;28;45470;-59
2022/12/17 17:16:49;;;;;;;;;42.75;41.75;;;;;1.53;62.94;101845.22;5058344;28;45496;-60
2022/12/17 17:19:14;;;;;;;;;69.00;57.33;;;;;1.52;63.14;101848.72;5077003;27;45380;-59
2022/12/17 17:21:46;;;;;;;;;56.00;45.25;;;;;1.51;63.46;101859.22;5077842;28;45461;-62
2022/12/17 17:24:14;;;;;;;;;68.33;52.00;;;;;1.50;64.22;101866.22;5066519;28;46231;-61
2022/12/17 17:26:40;;;;;;;;;63.33;51.67;;;;;1.50;63.94;101852.22;5101534;27;45374;-58
2022/12/17 17:29:06;;;;;;;;;70.00;54.67;;;;;1.49;64.74;101853.97;5076928;27;45543;-63
2022/12/17 17:31:33;;;;;;;;;75.00;57.67;;;;;1.47;64.75;101853.09;5074024;28;45506;-62
2022/12/17 17:34:03;;;;;;;;;69.33;53.33;;;;;1.41;65.13;101860.94;5056809;28;46488;-61
2022/12/17 17:36:29;;;;;;;;;67.00;45.67;;;;;1.37;64.67;101870.56;5056685;28;45550;-61
2022/12/17 17:38:57;;;;;;;;;66.33;52.00;;;;;1.43;65.13;101885.41;5072042;27;45480;-63
2022/12/17 17:41:26;;;;;;;;;70.67;49.67;;;;;1.42;64.23;101881.91;5075759;28;45436;-68
2022/12/17 17:44:03;;;;;;;;;54.33;41.33;;;;;1.39;64.65;101887.16;5076824;28;47015;-66
2022/12/17 17:46:30;;;;;;;;;64.00;45.00;;;;;1.31;64.11;101874.91;5073923;28;45417;-68
2022/12/17 17:48:58;;;;;;;;;70.00;51.67;;;;;1.33;64.08;101883.66;5071056;28;45358;-69
2022/12/17 17:51:27;;;;;;;;;63.00;48.00;;;;;1.31;63.90;101881.03;5072422;28;45711;-63
2022/12/17 17:53:53;;;;;;;;;61.00;50.33;;;;;1.25;64.63;101865.28;5075611;28;46263;-65
2022/12/17 17:56:25;;;;;;;;;52.33;42.67;;;;;1.28;63.88;101865.28;5056532;28;45456;-60
2022/12/17 17:58:57;;;;;;;;;54.33;48.00;;;;;1.30;64.19;101873.13;5051011;28;45349;-62
2022/12/17 18:01:26;;;;;;;;;61.67;48.00;;;;;1.26;64.30;101861.78;5061107;28;45564;-64
2022/12/17 18:03:54;;;;;;;;;64.67;45.67;;;;;1.12;64.61;101851.28;5075519;28;45410;-62
2022/12/17 18:06:19;;;;;;;;;66.67;49.67;;;;;1.15;64.18;101856.50;5074909;28;45307;-61
2022/12/17 18:08:45;;;;;;;;;56.33;46.00;;;;;1.18;64.01;101864.41;5073661;28;45409;-65
2022/12/17 18:11:12;;;;;;;;;55.33;49.00;;;;;1.14;65.12;101860.00;5066415;28;45379;-66
2022/12/17 18:13:53;;;;;;;;;50.25;44.50;;;;;1.03;65.29;101853.84;5057848;28;46685;-62
2022/12/17 18:16:24;;;;;;;;;66.33;54.00;;;;;0.91;65.43;101821.50;5075707;28;45382;-60
2022/12/17 18:18:52;;;;;;;;;40.50;35.25;;;;;1.07;65.00;101849.53;5070202;27;45514;-64
2022/12/17 18:21:18;;;;;;;;;70.33;52.67;;;;;1.07;65.08;101858.25;5056476;28;45605;-64
2022/12/17 18:23:45;;;;;;;;;54.67;46.33;;;;;1.06;65.96;101866.13;5069604;28;46246;-62
2022/12/17 18:26:22;;;;;;;;;44.25;37.50;;;;;1.01;65.36;101859.97;5049537;28;45436;-66
2022/12/17 18:28:47;;;;;;;;;58.00;49.00;;;;;1.03;65.22;101863.47;5042917;28;45505;-68
2022/12/17 18:31:22;;;;;;;;;50.75;38.00;;;;;1.07;65.61;101866.13;5067709;28;45454;-59
2022/12/17 18:33:51;;;;;;;;;60.00;46.50;;;;;1.02;65.43;101856.47;5075159;28;46024;-59
2022/12/17 18:36:27;;;;;;;;;51.50;45.00;;;;;0.96;65.32;101849.47;5072644;27;45433;-65
2022/12/17 18:38:58;;;;;;;;;62.67;47.33;;;;;0.93;64.82;101867.81;5076032;28;45421;-60
2022/12/17 18:44:10;;;;;;;;;60.67;51.33;;;;;1.05;65.19;101886.19;5074241;28;45824;-63
2022/12/17 18:46:36;;;;;;;;;52.00;41.50;;;;;1.02;65.04;101883.53;5074251;27;45358;-60
2022/12/17 18:49:06;;;;;;;;;47.75;40.50;;;;;1.01;64.54;101887.03;5075926;28;45366;-61
2022/12/17 18:51:33;;;;;;;;;68.50;51.50;;;;;1.01;64.99;101884.41;5058190;28;46211;-64
2022/12/17 18:54:00;;;;;;;;;57.00;48.50;;;;;1.04;64.68;101894.94;5040978;28;47764;-63
2022/12/17 18:56:27;;;;;;;;;57.00;46.67;;;;;1.02;64.35;101895.75;5076147;28;45976;-64
2022/12/17 18:58:56;;;;;;;;;50.33;45.00;;;;;0.99;65.05;101904.50;5074900;28;45473;-62
2022/12/17 19:01:24;;;;;;;;;53.33;47.00;;;;;0.97;64.75;101900.13;5076052;28;45450;-63
2022/12/17 19:03:50;;;;;;;;;65.00;51.00;;;;;0.91;64.54;101895.72;5075561;28;45246;-61
2022/12/17 19:06:16;;;;;;;;;66.33;49.00;;;;;0.91;64.99;101895.72;5057199;28;45335;-63
2022/12/17 19:08:42;;;;;;;;;62.00;49.67;;;;;0.89;64.83;101895.72;5075583;28;45345;-64
2022/12/17 19:11:09;;;;;;;;;67.67;51.33;;;;;0.71;64.44;101848.50;5075409;28;45336;-60
2022/12/17 19:13:34;;;;;;;;;70.67;54.00;;;;;0.86;64.02;101885.22;5070900;28;45543;-59
2022/12/17 19:16:08;;;;;;;;;60.33;47.33;;;;;0.82;63.68;101898.31;5066992;28;45477;-59
2022/12/17 19:18:33;;;;;;;;;60.33;49.00;;;;;0.79;64.65;101885.22;5058649;28;45413;-61
2022/12/17 19:20:59;;;;;;;;;62.67;45.33;;;;;0.83;64.04;101902.69;5075985;28;45425;-60
2022/12/17 19:23:24;;;;;;;;;56.67;48.33;;;;;0.80;64.09;101902.66;5076002;27;47080;-62
2022/12/17 19:25:50;;;;;;;;;54.67;49.00;;;;;0.76;64.53;101900.88;5077193;28;45410;-64
2022/12/17 19:28:16;;;;;;;;;63.67;53.33;;;;;0.62;63.85;101892.09;5074427;28;45673;-61
2022/12/17 19:30:41;;;;;;;;;68.67;55.00;;;;;0.57;64.19;101887.72;5077987;28;45381;-61
2022/12/17 19:33:07;;;;;;;;;70.67;57.33;;;;;0.64;64.07;101895.59;5059637;28;46174;-58
2022/12/17 19:35:34;;;;;;;;;66.33;47.33;;;;;0.66;63.77;101900.00;5078372;28;45476;-65
2022/12/17 19:38:00;;;;;;;;;71.33;52.00;;;;;0.64;64.20;101890.34;5071166;28;45339;-60
2022/12/17 19:40:25;;;;;;;;;59.33;48.33;;;;;0.61;63.68;101890.34;5064764;28;45558;-58
2022/12/17 19:42:54;;;;;;;;;67.00;54.00;;;;;0.56;64.09;101893.81;5077775;28;47546;-59
2022/12/17 19:45:20;;;;;;;;;61.33;50.00;;;;;0.56;64.09;101891.19;5090565;27;45504;-64
2022/12/17 19:47:46;;;;;;;;;67.00;52.00;;;;;0.56;64.29;101883.34;5066818;28;45410;-63
2022/12/17 19:50:11;;;;;;;;;71.67;50.33;;;;;0.46;64.31;101871.06;5057659;28;45224;-62
2022/12/17 19:52:37;;;;;;;;;69.00;49.00;;;;;0.51;64.25;101885.03;5071456;28;45428;-63
2022/12/17 19:55:02;;;;;;;;;71.67;52.00;;;;;0.57;64.39;101899.91;5070469;28;45504;-65
2022/12/17 19:57:28;;;;;;;;;64.33;48.00;;;;;0.56;63.45;101888.56;5070216;28;45498;-61
2022/12/17 19:59:53;;;;;;;;;65.67;46.33;;;;;0.53;63.86;101891.19;5070290;28;45662;-61
2022/12/17 20:02:19;;;;;;;;;64.00;47.33;;;;;0.51;63.78;101902.50;5056156;28;47754;-62
2022/12/17 20:04:44;;;;;;;;;57.67;48.00;;;;;0.43;63.10;101897.22;5073422;28;45578;-62
2022/12/17 20:07:10;;;;;;;;;75.33;52.00;;;;;0.49;63.26;101918.19;5073632;28;45475;-61
2022/12/17 20:09:35;;;;;;;;;50.33;45.33;;;;;0.46;62.66;101923.41;5059982;28;45296;-61
2022/12/17 20:12:01;;;;;;;;;61.00;48.33;;;;;0.48;63.28;101916.44;5078773;28;46179;-62
2022/12/17 20:14:27;;;;;;;;;62.33;45.67;;;;;0.47;63.18;101919.03;5067311;28;45513;-63
2022/12/17 20:16:59;;;;;;;;;58.00;45.67;;;;;0.50;63.23;101929.53;5074283;28;45388;-64
2022/12/17 20:19:29;;;;;;;;;65.33;49.00;;;;;0.42;63.00;101921.66;5058542;28;45408;-65
2022/12/17 20:21:55;;;;;;;;;60.33;50.33;;;;;0.38;63.59;101905.91;5076329;28;45596;-63
2022/12/17 20:24:21;;;;;;;;;61.00;49.00;;;;;0.48;63.35;101932.16;5050957;28;45508;-59
2022/12/17 20:26:49;;;;;;;;;66.67;55.33;;;;;0.51;63.70;101942.63;5058994;28;45382;-67
2022/12/17 20:29:15;;;;;;;;;54.33;45.00;;;;;0.50;63.53;101940.88;5071603;28;45197;-63
2022/12/17 20:31:41;;;;;;;;;61.33;43.67;;;;;0.42;63.13;101939.09;5059293;28;45506;-65
2022/12/17 20:34:08;;;;;;;;;67.00;49.67;;;;;0.35;63.56;101938.16;5077790;28;45469;-65
2022/12/17 20:36:34;;;;;;;;;67.67;49.00;;;;;0.39;63.65;101921.63;5059608;28;45407;-65
2022/12/17 20:39:00;;;;;;;;;67.00;52.67;;;;;0.38;63.23;101926.81;5077013;28;45524;-68
2022/12/17 20:41:28;;;;;;;;;71.33;48.00;;;;;0.37;63.27;101935.53;5072136;28;45818;-73
2022/12/17 20:43:54;;;;;;;;;66.00;51.33;;;;;0.27;63.91;101926.78;5057591;28;45421;-67
2022/12/17 20:46:21;;;;;;;;;57.67;48.67;;;;;0.21;64.15;101921.47;5057158;28;45517;-72
2022/12/17 20:48:47;;;;;;;;;54.00;44.33;;;;;0.25;64.38;101938.94;5073723;28;45535;-63
2022/12/17 20:51:16;;;;;;;;;59.33;50.67;;;;;0.17;64.38;101935.41;5089891;27;45489;-63
2022/12/17 20:53:43;;;;;;;;;45.67;40.67;;;;;0.22;63.83;101933.69;5077488;27;46050;-64
2022/12/17 20:56:13;;;;;;;;;64.00;49.00;;;;;0.21;64.46;101942.41;5077599;27;45308;-61
2022/12/17 20:58:39;;;;;;;;;56.33;49.00;;;;;-0.03;64.56;101916.91;5074502;27;45492;-67
2022/12/17 21:01:17;;;;;;;;;65.67;52.67;;;;;0.04;64.56;101944.03;5074527;28;45464;-66
2022/12/17 21:03:43;;;;;;;;;58.00;47.33;;;;;0.09;64.67;101950.16;5057699;28;45447;-63
2022/12/17 21:06:15;;;;;;;;;46.67;37.67;;;;;0.11;64.63;101946.69;5064975;28;45409;-64
2022/12/17 21:08:42;;;;;;;;;67.67;50.67;;;;;0.11;64.83;101932.72;5057103;28;45573;-67
2022/12/17 21:11:08;;;;;;;;;59.67;52.33;;;;;0.17;64.92;101945.88;5056662;28;45880;-62
2022/12/17 21:13:38;;;;;;;;;58.33;42.67;;;;;0.12;64.80;101961.50;5060199;28;45713;-66
2022/12/17 21:16:08;;;;;;;;;50.00;34.67;;;;;-0.04;64.84;101942.19;5074795;28;45442;-61
2022/12/17 21:18:34;;;;;;;;;52.67;45.00;;;;;0.10;64.74;101962.38;5054561;28;45584;-64
2022/12/17 21:21:08;;;;;;;;;58.67;45.67;;;;;0.12;65.06;101952.78;5072434;28;46245;-65
2022/12/17 21:23:35;;;;;;;;;66.33;48.67;;;;;0.01;64.71;101923.06;5073918;27;45610;-64
2022/12/17 21:26:07;;;;;;;;;67.67;48.00;;;;;0.08;64.99;101940.56;5053130;28;45442;-61
2022/12/17 21:28:33;;;;;;;;;56.67;45.00;;;;;0.08;65.06;101924.88;5072558;28;45243;-62
2022/12/17 21:30:59;;;;;;;;;52.67;48.00;;;;;0.06;64.78;101943.16;5070239;28;45415;-66
2022/12/17 21:33:25;;;;;;;;;59.00;48.00;;;;;0.05;64.70;101936.19;5055379;28;45461;-62
2022/12/17 21:36:00;;;;;;;;;62.33;47.33;;;;;0.07;64.51;101933.56;5066926;27;45427;-60
2022/12/17 21:38:26;;;;;;;;;61.00;46.67;;;;;0.06;64.35;101927.47;5069566;28;45471;-58
2022/12/17 21:40:53;;;;;;;;;61.33;45.33;;;;;0.06;65.01;101926.59;5067461;28;46230;-57
2022/12/17 21:43:18;;;;;;;;;65.33;47.33;;;;;0.05;65.29;101930.06;5067879;28;45755;-64
2022/12/17 21:45:43;;;;;;;;;59.00;49.67;;;;;0.09;64.91;101924.88;5075218;28;45449;-64
2022/12/17 21:48:09;;;;;;;;;55.33;43.67;;;;;0.05;64.69;101919.63;5073622;28;45539;-56
2022/12/17 21:50:42;;;;;;;;;52.33;46.67;;;;;-0.06;64.65;101916.91;5070337;28;45517;-58
2022/12/17 21:53:09;;;;;;;;;61.33;45.67;;;;;-0.01;64.86;101923.03;5053714;27;45409;-58
2022/12/17 21:55:35;;;;;;;;;51.67;45.33;;;;;-0.05;64.89;101911.69;5073998;28;45418;-56
2022/12/17 21:58:00;;;;;;;;;55.33;47.33;;;;;-0.07;64.72;101912.53;5069920;28;45488;-59
2022/12/17 22:00:26;;;;;;;;;51.67;43.67;;;;;-0.10;64.90;101900.31;5045135;28;46172;-60
2022/12/17 22:02:52;;;;;;;;;55.67;44.33;;;;;-0.09;65.07;101903.81;5068877;28;45399;-59
2022/12/17 22:05:18;;;;;;;;;54.33;44.33;;;;;-0.11;65.13;101888.09;5073122;28;45431;-62
2022/12/17 22:07:43;;;;;;;;;48.33;45.00;;;;;-0.14;64.97;101887.19;5050006;28;45470;-60
2022/12/17 22:10:09;;;;;;;;;57.67;46.00;;;;;-0.13;65.33;101889.84;5071689;28;46778;-61
2022/12/17 22:15:19;;;;;;;;;58.00;49.67;;;;;-0.13;65.34;101891.56;5072724;28;45427;-62
2022/12/17 22:17:44;;;;;;;;;65.67;51.00;;;;;-0.18;64.71;101881.06;5075196;28;45493;-59
2022/12/17 22:20:10;;;;;;;;;57.67;43.00;;;;;-0.11;64.98;101888.09;5074640;28;46166;-61
2022/12/17 22:22:35;;;;;;;;;46.33;42.67;;;;;-0.15;64.75;101888.06;5052590;28;45855;-64
2022/12/17 22:25:02;;;;;;;;;65.67;49.00;;;;;-0.21;64.87;101895.84;5053800;28;45609;-64
2022/12/17 22:27:27;;;;;;;;;42.00;40.00;;;;;-0.25;64.96;101894.97;5055945;28;45846;-57
2022/12/17 22:35:20;;;;;;;;;54.33;45.67;;;;;-0.27;64.73;101904.50;5073736;28;45447;-56
2022/12/17 22:37:46;;;;;;;;;71.67;54.00;;;;;-0.32;64.83;101906.22;5074576;28;47458;-58
2022/12/17 22:40:11;;;;;;;;;51.67;45.33;;;;;-0.38;64.66;101904.44;5069209;28;45547;-59
2022/12/17 22:45:21;;;;;;;;;42.67;36.67;;;;;-0.43;65.07;101879.09;5072172;28;45480;-58
2022/12/17 22:47:46;;;;;;;;;37.00;34.67;;;;;-0.42;65.37;101880.84;5075597;28;45515;-61
2022/12/17 22:50:12;;;;;;;;;71.00;52.67;;;;;-0.44;65.71;101887.78;5062510;28;46083;-58
2022/12/17 22:52:37;;;;;;;;;64.67;48.00;;;;;-0.49;65.01;101879.03;5061730;28;45374;-62
2022/12/17 22:55:03;;;;;;;;;63.00;46.67;;;;;-0.47;64.65;101895.59;5078154;28;45456;-58
2022/12/17 22:57:29;;;;;;;;;62.33;48.33;;;;;-0.47;64.99;101893.00;5080030;28;45805;-59
2022/12/17 22:59:54;;;;;;;;;70.00;52.67;;;;;-0.57;64.87;101873.72;5095527;27;45467;-56
2022/12/17 23:02:20;;;;;;;;;44.67;38.33;;;;;-0.51;64.48;101880.78;5078741;28;45602;-62
2022/12/17 23:04:45;;;;;;;;;53.00;45.67;;;;;-0.54;64.96;101880.72;5076554;28;45462;-58
2022/12/17 23:07:10;;;;;;;;;64.67;48.33;;;;;-0.57;65.05;101860.66;5078547;28;45329;-61
2022/12/17 23:09:36;;;;;;;;;53.33;46.67;;;;;-0.61;64.87;101849.31;5076022;28;46006;-59
2022/12/17 23:12:49;;;;;;;;;69.67;50.00;;;;;-0.61;64.87;101849.31;5059308;28;45375;-57
2022/12/17 23:14:46;;;;;;;;;54.67;46.67;;;;;-0.71;65.04;101838.75;5070508;28;45460;-57
2022/12/17 23:17:12;;;;;;;;;78.00;52.67;;;;;-0.67;65.21;101844.00;5063585;28;45531;-56
2022/12/17 23:19:37;;;;;;;;;51.00;44.33;;;;;-0.67;65.40;101859.69;5073770;27;45295;-60
2022/12/17 23:22:03;;;;;;;;;54.33;45.00;;;;;-0.78;64.98;101848.28;5058774;28;45453;-59
2022/12/17 23:24:32;;;;;;;;;54.00;48.00;;;;;-0.69;64.98;101861.41;5077427;28;45490;-59
2022/12/17 23:26:57;;;;;;;;;48.00;45.00;;;;;-0.81;65.34;101850.84;5070365;28;45324;-63
2022/12/17 23:29:22;;;;;;;;;51.00;42.33;;;;;-0.87;65.40;101855.13;5079110;28;45381;-61
2022/12/17 23:31:48;;;;;;;;;59.33;45.33;;;;;-0.85;65.68;101862.13;5061340;28;45407;-61
2022/12/17 23:34:13;;;;;;;;;57.67;44.33;;;;;-0.92;65.22;101844.63;5077577;28;45258;-60
2022/12/17 23:36:39;;;;;;;;;69.00;45.67;;;;;-0.87;65.38;101856.00;5079536;28;45369;-58
2022/12/17 23:39:05;;;;;;;;;52.33;42.00;;;;;-0.79;65.12;101864.78;5041682;28;46116;-58
2022/12/17 23:41:31;;;;;;;;;69.67;47.33;;;;;-0.81;65.04;101868.25;5093698;27;45461;-59
2022/12/17 23:43:57;;;;;;;;;60.67;45.00;;;;;-0.85;65.40;101869.97;5079553;27;45427;-56
2022/12/17 23:46:25;;;;;;;;;48.67;44.33;;;;;-0.94;65.26;101854.16;5079509;27;45247;-57
2022/12/17 23:48:50;;;;;;;;;44.33;39.67;;;;;-0.93;65.30;101876.81;5077349;27;46165;-57
2022/12/17 23:51:18;;;;;;;;;63.67;52.00;;;;;-1.02;65.07;101863.69;5060987;28;45335;-60
2022/12/17 23:53:44;;;;;;;;;60.67;46.33;;;;;-0.98;65.29;101883.72;5079055;28;45351;-60
2022/12/17 23:56:13;;;;;;;;;48.33;45.00;;;;;-0.99;65.20;101876.75;5078681;28;45681;-61
2022/12/17 23:58:41;;;;;;;;;53.67;48.00;;;;;-1.00;65.20;101870.66;5066938;28;46501;-63
